UUDDLGKR

Guest
Details From UUDD - Moscou Domodedovo
To LGKR - Ioannis Kapodistrias Intl
Flight Number -
Tags Generated
Created
Modified
Stats Distance 1,190 nm / 2,204 km
Max Altitude 0 ft / 0 m
Waypoints 7
Social Downloads 2
Likes 0
Share VATSIM

Download

Looking for another format? Having issues loading an existing format? Contact us
Advertisement - Login to hide

Notes

Generated

Route

UUDD TESLA GOROS MOLAX NISVA GAR02 LGKR

ID Type Via Altitude Latitude Longitude Leg Dist Tot Dist Heading (true) Name
O UUDD APT - 0 ft / 0 m 55.42000˚ 37.88000˚ - 0 nm - -
TESLA FIX - 0 ft / 0 m 52.35000˚ 33.31667˚ 245 nm 245 nm 223° / 219° -
GOROS FIX - 0 ft / 0 m 49.45641˚ 29.75659˚ 219 nm 464 nm 219° / 216° -
MOLAX FIX - 0 ft / 0 m 46.26877˚ 26.08356˚ 241 nm 706 nm 219° / 216° -
NISVA FIX - 0 ft / 0 m 42.97278˚ 22.79750˚ 242 nm 949 nm 217° / 214° -
GAR02 FIX - 0 ft / 0 m 39.63925˚ 19.90187˚ 239 nm 1188 nm 214° / 212° -
O LGKR APT - 0 ft / 0 m 39.61228˚ 19.90921˚ 1 nm 1190 nm 168° / 168° -

Altitude Profile

Advertisement - Login to hide

Weather


0- 5 10 15 20 25 30 35+ Temperature / ° C

Clouds and Precipitation
Forecast for 2018-05-26 00:00 UTC. Updated an hour ago

Ground ~20,000 ft ~40,000 ft Winds

UUDD

Details ICAO UUDD (DME)
Name Moscou Domodedovo
Region Russia
Timezone Europe/Moscow (UTC+3.0)
Stats Elevation 588 ft / 179 m (AMSL)
Location 55.409191° 37.901432°
Runways 3
Magnetic Variation 11.080° E

METAR

UUDD 260000Z 03002MPS CAVOK 08/03 Q1031 R32L/010095 NOSIG

Decode

TAF

TAF UUDD 252257Z 2600/2706 05003MPS CAVOK TX20/2613Z TN05/2602Z BECMG 2622/2624 25005MPS

Decode

Departure Runways

ID Width Length Bearing (true) Bearing (mag) Surface Threshold Offset Overrun Length
14C 148 ft / 45 m 8,754 ft / 2,668 m 146.47° 135.39° Concrete 0 ft / 0 m 0 ft / 0 m
14L 174 ft / 53 m 12,382 ft / 3,774 m 145.59° 134.51° Concrete 0 ft / 0 m 0 ft / 0 m
14R 230 ft / 70 m 11,395 ft / 3,473 m 145.45° 134.37° Concrete 0 ft / 0 m 0 ft / 0 m
32C 148 ft / 45 m 8,754 ft / 2,668 m 326.49° 315.41° Concrete 0 ft / 0 m 0 ft / 0 m
32L 230 ft / 70 m 11,395 ft / 3,473 m 325.48° 314.40° Concrete 0 ft / 0 m 0 ft / 0 m
32R 174 ft / 53 m 12,382 ft / 3,774 m 325.61° 314.53° Concrete 0 ft / 0 m 0 ft / 0 m

LGKR

Details ICAO LGKR (CFU)
Name IOANNIS KAPODISTRIAS INTL
Region Greece
Timezone Europe/Athens (UTC+3.0)
Stats Elevation 6 ft / 2 m (AMSL)
Location 39.601779° 19.911908°
Runways 1
Magnetic Variation 4.142° E

METAR

LGKR 252350Z 00000KT 9999 SCT020 SCT030 BKN080 19/18 Q1013 NOSIG

Decode

TAF

TAF LGKR 252300Z 2600/2624 VRB05KT 9999 SCT020 SCT080

Decode

Destination Runways

ID Width Length Bearing (true) Bearing (mag) Surface Threshold Offset Overrun Length
17 148 ft / 45 m 7,815 ft / 2,382 m 168.81° 164.67° Asphalt 1,348 ft / 411 m 0 ft / 0 m
35 148 ft / 45 m 7,815 ft / 2,382 m 348.81° 344.67° Asphalt 213 ft / 65 m 0 ft / 0 m

Popular Alternatives